KAST/AST METAR and TAF weather

Enter ICAO airport designator
Station Type Date Time Source
KAST METAR 2019/08/17 11:18 UTC NOAA

KAST 171118Z AUTO 27006KT 10SM OVC028 17/13 A3002 RMK AO2 T01670133


Station Type Date Time Source
KAST Decoded METAR 2019/08/17 11:18 UTC NOAA

Station name not available
Aug 17, 2019 - 07:18 AM EDT / 2019.08.17 1118 UTC
Wind: from the W (270 degrees) at 7 MPH (6 KT):0
Visibility: 10 mile(s):0
Sky conditions: overcast
Temperature: 62.1 F (16.7 C)
Dew Point: 55.9 F (13.3 C)
Relative Humidity: 80%
Pressure (altimeter): 30.02 in. Hg (1016 hPa)
ob: KAST 171118Z AUTO 27006KT 10SM OVC028 17/13 A3002 RMK AO2 T01670133
cycle: 11

Station Type Date Time Source
KAST TAF 2019/08/17 09:18 UTC NOAA

TAF
AMD KAST 170915Z 1709/1806 24004KT P6SM BKN025 OVC035
TEMPO 1709/1713 5SM -DZ
FM171800 28005KT P6SM SCT025 OVC035
FM172100 29007KT P6SM SCT030 BKN040
FM180400 24004KT P6SM OVC030

Example: see airport list